createdAt,value
2022-12-02T00:23:07.815Z,34.9
2022-12-02T00:53:26.357Z,41.9
2022-12-02T01:23:43.517Z,38.1
2022-12-02T01:54:01.259Z,31.7
2022-12-02T02:24:19.997Z,39.2
2022-12-02T02:54:39.423Z,30.3
2022-12-02T03:24:58.231Z,36.5
2022-12-02T03:55:18.178Z,40.8
2022-12-02T04:25:36.104Z,35.6
2022-12-02T04:55:55.153Z,36.3
2022-12-02T05:26:12.955Z,37
2022-12-02T05:56:29.957Z,33.4
2022-12-02T06:26:49.058Z,31.9
2022-12-02T06:57:07.734Z,37.3
2022-12-02T07:27:24.677Z,44.8
2022-12-02T07:57:42.803Z,37.1
2022-12-02T08:28:00.681Z,31.5
2022-12-02T08:58:17.438Z,26.5
2022-12-02T09:28:34.508Z,21.5
2022-12-02T09:58:53.914Z,21.9
2022-12-02T10:29:12.189Z,13.9
2022-12-02T10:59:31.181Z,12.3
2022-12-02T12:00:07.942Z,11.2
2022-12-02T12:30:25.201Z,10.7
2022-12-02T13:00:42.910Z,9.8
2022-12-02T13:31:02.148Z,10.7
2022-12-02T14:01:20.332Z,10.1
2022-12-02T14:31:39.835Z,10.8
2022-12-02T15:01:56.987Z,17.3
2022-12-02T15:32:19.131Z,13
2022-12-02T16:02:36.588Z,11.3
2022-12-02T16:32:55.517Z,9.7
2022-12-02T17:03:13.914Z,7.2
2022-12-02T17:33:31.980Z,11.3
2022-12-02T18:03:49.997Z,12.4
2022-12-02T18:34:09.099Z,7.9
2022-12-02T19:04:25.880Z,8.4
2022-12-02T19:34:43.503Z,7.3
2022-12-02T20:05:02.383Z,5.9
2022-12-02T20:35:24.368Z,7.3
2022-12-02T21:05:41.697Z,9.9
2022-12-02T21:35:58.371Z,11.1
2022-12-02T22:06:15.242Z,9.5
2022-12-02T22:36:34.655Z,9.2
2022-12-02T23:06:53.930Z,9.9
2022-12-02T23:37:10.855Z,11.8
